Terminal Aerodrome Forecast
Issued by NWS Denver/Boulder, CO

Home | Current Version | Previous Version | Text Only | Print | Product List | Glossary On
Versions: 1 2 3 4 5 6 7 8 9 10 11 12 13 14 15 16 17 18 19 20 21 22 23 24 25 26 27 28 29 30 31
000
FTUS45 KBOU 141142
TAFDEN
TAF
KDEN 141142Z 1412/1518 34008KT 5SM -SN SCT015 SCT025 BKN040
      TEMPO 1412/1413 3SM -SN BR BKN015
     FM141300 32007KT P6SM VCSH SCT012 OVC025
     FM141500 30005KT P6SM SCT020 BKN045
     FM141700 35012KT P6SM SCT050 SCT090
     FM141900 01015G26KT P6SM FEW090 SCT220
     FM150100 04008KT P6SM FEW250
     FM150200 10006KT P6SM SKC
     FM150600 19012KT P6SM FEW250=

USA.gov is the U.S. government's official web portal to all federal, state and local government web resources and services.